createdAt,value
2023-03-10T00:01:25.176Z,12.97
2023-03-10T00:03:54.794Z,8.40
2023-03-10T04:10:23.744Z,19.37
2023-03-10T04:12:54.979Z,20.17
2023-03-10T04:15:25.079Z,18.70
2023-03-10T04:17:53.707Z,20.97
2023-03-10T04:20:22.301Z,19.50
2023-03-10T04:22:52.719Z,19.57
2023-03-10T04:25:27.708Z,20.30
2023-03-10T04:27:57.764Z,21.03
2023-03-10T04:30:35.331Z,24.47
2023-03-10T04:33:06.098Z,17.70
2023-03-10T04:35:36.712Z,19.53
2023-03-10T04:38:05.179Z,16.93
2023-03-10T04:40:36.829Z,19.47
2023-03-10T04:43:05.387Z,17.33
2023-03-10T04:45:33.884Z,20.70
2023-03-10T04:48:02.393Z,17.47
2023-03-10T04:50:31.003Z,17.90
2023-03-10T04:52:59.425Z,17.60
2023-03-10T04:55:31.150Z,20.47
2023-03-10T04:58:02.345Z,19.00
2023-03-10T05:00:31.059Z,22.60
2023-03-10T05:03:00.358Z,18.40
2023-03-10T05:05:28.822Z,19.97
2023-03-10T05:07:57.124Z,19.03
2023-03-10T05:10:26.339Z,20.27
2023-03-10T05:12:57.606Z,18.13
2023-03-10T05:15:27.655Z,17.97
2023-03-10T05:17:56.084Z,19.83
2023-03-10T05:20:24.553Z,18.30
2023-03-10T05:22:53.219Z,19.50
2023-03-10T05:25:21.618Z,20.20
2023-03-10T05:27:50.084Z,19.80
2023-03-10T05:30:19.186Z,18.00
2023-03-10T05:32:52.136Z,21.10
2023-03-10T05:35:20.768Z,21.80
2023-03-10T05:37:49.109Z,23.63
2023-03-10T05:40:19.818Z,23.23
2023-03-10T05:42:49.567Z,22.03
2023-03-10T05:45:20.738Z,22.67
2023-03-10T05:47:49.595Z,26.00
2023-03-10T05:50:21.034Z,22.53
2023-03-10T05:52:49.474Z,22.97
2023-03-10T05:55:19.717Z,21.93
2023-03-10T05:57:48.992Z,21.80
2023-03-10T06:00:24.483Z,22.33
2023-03-10T06:03:00.386Z,19.07
2023-03-10T06:05:30.044Z,25.10
2023-03-10T06:08:07.591Z,21.70
2023-03-10T06:10:44.311Z,25.10
2023-03-10T06:13:15.470Z,20.33
2023-03-10T06:15:59.512Z,22.40
2023-03-10T06:18:51.325Z,22.30
2023-03-10T06:21:21.069Z,23.10
2023-03-10T06:23:52.394Z,22.87
2023-03-10T06:26:22.839Z,24.33
2023-03-10T06:28:51.332Z,22.33
2023-03-10T06:31:32.129Z,21.43
2023-03-10T06:34:35.993Z,23.33
2023-03-10T06:38:02.349Z,24.13
2023-03-10T06:40:36.956Z,22.27
2023-03-10T06:46:16.263Z,21.70
2023-03-10T06:48:45.227Z,22.23
2023-03-10T06:51:19.717Z,24.73
2023-03-10T06:53:49.217Z,24.70
2023-03-10T06:56:20.940Z,28.17
2023-03-10T06:58:49.965Z,27.03
2023-03-10T07:01:26.819Z,24.23
2023-03-10T07:03:56.036Z,28.63
2023-03-10T07:06:25.696Z,28.30
2023-03-10T07:08:55.547Z,24.03
2023-03-10T07:11:26.875Z,27.40
2023-03-10T07:13:55.960Z,26.50
2023-03-10T07:16:24.631Z,28.90
2023-03-10T07:18:53.092Z,35.43
2023-03-10T07:21:23.016Z,33.63
2023-03-10T07:23:52.441Z,33.30
2023-03-10T07:26:21.422Z,30.97
2023-03-10T07:28:52.286Z,30.90
2023-03-10T07:31:21.325Z,25.90
2023-03-10T07:33:50.542Z,26.43
2023-03-10T07:36:20.770Z,28.40
2023-03-10T07:38:49.652Z,31.13
2023-03-10T07:41:20.716Z,30.87
2023-03-10T07:43:52.685Z,32.37
2023-03-10T07:46:22.277Z,30.87
2023-03-10T07:48:52.795Z,30.57
2023-03-10T07:51:21.448Z,28.97
2023-03-10T07:53:49.916Z,32.93
2023-03-10T07:56:18.412Z,31.47
2023-03-10T07:58:46.947Z,28.17
2023-03-10T08:01:19.399Z,29.30
2023-03-10T08:03:48.367Z,32.97
2023-03-10T08:06:22.007Z,31.37
2023-03-10T08:08:50.779Z,29.90
2023-03-10T08:11:19.404Z,33.57
2023-03-10T08:13:48.480Z,31.07
2023-03-10T08:16:20.369Z,34.30
2023-03-10T08:18:50.393Z,34.20
2023-03-10T08:21:19.193Z,33.40
2023-03-10T08:23:47.766Z,33.73
2023-03-10T08:26:18.458Z,32.57
2023-03-10T08:28:47.136Z,33.70
2023-03-10T08:31:18.974Z,35.10
2023-03-10T08:33:47.892Z,34.17
2023-03-10T08:36:18.790Z,38.80
2023-03-10T08:38:47.918Z,37.73
2023-03-10T08:41:18.904Z,41.60
2023-03-10T08:43:49.479Z,35.83
2023-03-10T08:46:21.007Z,41.67
2023-03-10T08:48:50.772Z,43.70
2023-03-10T08:51:20.306Z,38.10
2023-03-10T08:53:50.756Z,41.83
2023-03-10T08:56:20.982Z,42.40
2023-03-10T08:58:49.839Z,41.73
2023-03-10T09:01:19.799Z,40.43
2023-03-10T09:03:48.242Z,45.60
2023-03-10T09:06:16.801Z,43.03
2023-03-10T09:08:45.485Z,44.23
2023-03-10T09:11:18.895Z,45.93
2023-03-10T09:13:51.901Z,41.87
2023-03-10T09:16:22.503Z,51.13
2023-03-10T09:18:51.114Z,47.00
2023-03-10T09:21:20.486Z,45.60
2023-03-10T09:23:52.934Z,52.13
2023-03-10T09:26:21.911Z,44.30
2023-03-10T09:28:51.248Z,45.50
2023-03-10T09:31:24.352Z,51.28
2023-03-10T09:33:53.936Z,46.88
2023-03-10T09:36:22.545Z,48.83
2023-03-10T09:38:50.898Z,43.22
2023-03-10T09:41:40.319Z,51.42
2023-03-10T09:44:24.245Z,47.75
2023-03-10T09:47:07.273Z,46.53
2023-03-10T09:49:41.469Z,49.50
2023-03-10T09:52:22.526Z,45.88
2023-03-10T09:54:58.890Z,51.03
2023-03-10T09:57:31.650Z,48.08
2023-03-10T10:00:03.768Z,49.70
2023-03-10T10:02:37.364Z,53.03
2023-03-10T10:05:14.967Z,47.70
2023-03-10T10:07:49.656Z,50.10
2023-03-10T10:10:19.699Z,53.92
2023-03-10T10:12:52.553Z,47.80
2023-03-10T10:15:23.595Z,56.27
2023-03-10T10:18:18.052Z,51.20
2023-03-10T10:20:53.970Z,51.88
2023-03-10T10:23:26.461Z,49.00
2023-03-10T10:25:55.130Z,55.90
2023-03-10T10:28:30.237Z,53.33
2023-03-10T10:31:12.348Z,53.42
2023-03-10T10:33:57.783Z,56.20
2023-03-10T10:36:28.306Z,54.10
2023-03-10T10:38:57.790Z,55.10
2023-03-10T10:41:29.169Z,56.28
2023-03-10T10:44:00.432Z,60.45
2023-03-10T10:46:30.655Z,57.80
2023-03-10T10:49:06.319Z,51.50
2023-03-10T10:51:37.926Z,59.35
2023-03-10T10:54:28.337Z,50.22
2023-03-10T10:56:58.595Z,48.92
2023-03-10T10:59:31.081Z,51.85
2023-03-10T11:02:01.283Z,51.85
2023-03-10T11:04:43.820Z,53.63
2023-03-10T11:07:17.741Z,49.13
2023-03-10T11:09:46.102Z,50.28
2023-03-10T11:12:22.133Z,44.90
2023-03-10T11:15:03.385Z,47.13
2023-03-10T11:17:36.607Z,47.42
2023-03-10T11:20:16.206Z,43.72
2023-03-10T11:22:48.258Z,43.38
2023-03-10T11:25:23.851Z,40.08
2023-03-10T11:28:03.264Z,41.78
2023-03-10T11:30:34.233Z,41.97
2023-03-10T11:33:15.682Z,40.30
2023-03-10T11:35:47.805Z,44.60
2023-03-10T11:38:24.658Z,41.60
2023-03-10T11:40:55.139Z,42.20
2023-03-10T11:43:33.741Z,41.67
2023-03-10T11:46:08.847Z,44.60
2023-03-10T11:48:50.848Z,43.83
2023-03-10T11:51:29.219Z,42.83
2023-03-10T11:54:00.107Z,42.13
2023-03-10T11:56:31.815Z,34.60
2023-03-10T11:59:06.856Z,29.95
2023-03-10T12:01:41.268Z,31.23
2023-03-10T12:04:14.829Z,30.40
2023-03-10T12:06:49.781Z,34.00
2023-03-10T12:09:26.936Z,33.53
2023-03-10T12:11:56.068Z,26.55
2023-03-10T12:14:25.624Z,29.48
2023-03-10T12:16:55.459Z,26.15
2023-03-10T12:19:23.834Z,30.05
2023-03-10T12:22:25.911Z,25.27
2023-03-10T12:24:54.295Z,25.88
2023-03-10T12:27:22.567Z,24.70
2023-03-10T12:29:50.864Z,29.90
2023-03-10T12:32:42.822Z,26.73
2023-03-10T12:35:43.772Z,24.10
2023-03-10T12:38:31.002Z,24.95
2023-03-10T12:41:01.138Z,23.13
2023-03-10T12:43:57.106Z,23.70
2023-03-10T12:46:39.868Z,22.20
2023-03-10T12:49:33.535Z,24.20
2023-03-10T12:52:19.686Z,24.80
2023-03-10T12:55:02.987Z,23.65
2023-03-10T12:57:35.491Z,21.83
2023-03-10T13:00:12.512Z,20.20
2023-03-10T13:02:49.067Z,23.98
2023-03-10T13:05:24.181Z,20.08
2023-03-10T13:07:56.158Z,22.52
2023-03-10T13:10:29.362Z,20.15
2023-03-10T13:13:02.025Z,23.67
2023-03-10T13:15:31.977Z,20.80
2023-03-10T13:18:19.536Z,18.95
2023-03-10T13:20:48.980Z,20.88
2023-03-10T13:23:23.963Z,20.58
2023-03-10T13:25:55.146Z,21.70
2023-03-10T13:28:23.897Z,17.02
2023-03-10T13:30:53.804Z,17.90
2023-03-10T13:33:26.142Z,17.50
2023-03-10T13:35:54.671Z,17.42
2023-03-10T13:38:24.763Z,17.15
2023-03-10T13:41:03.388Z,15.73
2023-03-10T13:43:36.618Z,14.35
2023-03-10T13:46:09.885Z,14.40
2023-03-10T13:48:40.802Z,12.70
2023-03-10T13:51:18.739Z,11.70
2023-03-10T13:53:48.329Z,13.05
2023-03-10T13:56:21.451Z,12.40
2023-03-10T13:58:52.018Z,11.98
2023-03-10T14:01:24.409Z,11.68
2023-03-10T14:04:02.267Z,9.35
2023-03-10T14:06:31.124Z,16.13
2023-03-10T14:09:14.056Z,10.85
2023-03-10T14:11:44.995Z,9.27
2023-03-10T14:14:14.748Z,11.35
2023-03-10T14:16:51.655Z,10.57
2023-03-10T14:19:51.684Z,12.05
2023-03-10T14:22:35.380Z,12.50
2023-03-10T14:25:07.770Z,11.05
2023-03-10T14:27:41.726Z,12.73
2023-03-10T14:30:29.959Z,16.30
2023-03-10T14:32:59.685Z,10.88
2023-03-10T14:35:29.480Z,13.77
2023-03-10T14:37:57.827Z,9.90
2023-03-10T14:40:26.939Z,11.55
2023-03-10T14:43:02.325Z,9.90
2023-03-10T14:45:32.508Z,9.65
2023-03-10T14:48:03.944Z,10.68
2023-03-10T14:50:32.968Z,12.25
2023-03-10T14:53:01.238Z,12.00
2023-03-10T14:55:30.322Z,10.93
2023-03-10T14:58:03.387Z,14.10
2023-03-10T15:00:31.849Z,10.98
2023-03-10T15:03:00.322Z,13.65
2023-03-10T15:05:45.385Z,13.52
2023-03-10T15:08:16.662Z,11.75
2023-03-10T15:10:50.665Z,9.30
2023-03-10T15:13:22.689Z,12.88
2023-03-10T15:15:51.746Z,11.70
2023-03-10T15:18:21.480Z,10.80
2023-03-10T15:20:50.010Z,9.35
2023-03-10T15:23:20.136Z,10.80
2023-03-10T15:25:48.950Z,8.80
2023-03-10T15:28:17.696Z,10.52
2023-03-10T15:30:47.592Z,7.20
2023-03-10T15:33:16.481Z,7.95
2023-03-10T15:35:45.308Z,7.35
2023-03-10T15:38:15.678Z,7.25
2023-03-10T15:40:44.241Z,8.00
2023-03-10T15:43:12.487Z,10.15
2023-03-10T15:45:42.806Z,9.20
2023-03-10T15:48:12.784Z,13.93
2023-03-10T15:50:43.916Z,10.60
2023-03-10T15:53:12.300Z,10.57
2023-03-10T15:55:42.278Z,9.00
2023-03-10T15:58:11.580Z,9.95
2023-03-10T16:00:40.118Z,7.03
2023-03-10T16:03:08.573Z,11.50
2023-03-10T16:05:39.097Z,10.23
2023-03-10T16:08:07.519Z,9.35
2023-03-10T16:10:36.060Z,12.07
2023-03-10T16:13:04.387Z,11.50
2023-03-10T16:15:32.642Z,13.63
2023-03-10T16:18:00.906Z,10.48
2023-03-10T16:20:29.314Z,14.70
2023-03-10T16:22:59.041Z,13.07
2023-03-10T16:25:27.482Z,9.55
2023-03-10T16:27:55.745Z,11.30
2023-03-10T16:30:24.309Z,12.55
2023-03-10T16:32:52.825Z,13.18
2023-03-10T16:35:21.149Z,23.92
2023-03-10T16:37:49.463Z,13.60
2023-03-10T16:40:19.372Z,14.70
2023-03-10T16:42:47.694Z,12.68
2023-03-10T16:45:16.372Z,13.85
2023-03-10T16:47:46.174Z,13.48
2023-03-10T16:50:14.514Z,10.55
2023-03-10T16:52:43.856Z,11.73
2023-03-10T16:55:17.295Z,10.50
2023-03-10T16:57:47.600Z,10.43
2023-03-10T17:00:21.127Z,13.63
2023-03-10T17:02:49.688Z,13.98
2023-03-10T17:05:18.440Z,13.05
2023-03-10T17:07:55.575Z,10.85
2023-03-10T17:10:26.926Z,10.50
2023-03-10T17:12:57.264Z,11.57
2023-03-10T17:15:26.083Z,10.70
2023-03-10T17:17:54.333Z,14.13
2023-03-10T17:20:22.701Z,13.68
2023-03-10T17:22:50.943Z,13.15
2023-03-10T17:25:19.310Z,9.40
2023-03-10T17:27:48.132Z,11.23
2023-03-10T17:30:20.074Z,13.20
2023-03-10T17:32:50.431Z,10.23
2023-03-10T17:35:19.005Z,12.43
2023-03-10T17:37:47.268Z,9.73
2023-03-10T17:40:17.383Z,13.40
2023-03-10T17:42:45.688Z,11.45
2023-03-10T17:45:13.947Z,11.55
2023-03-10T17:47:43.650Z,9.95
2023-03-10T17:50:13.085Z,9.45
2023-03-10T17:52:41.410Z,11.73
2023-03-10T17:55:10.983Z,10.98
2023-03-10T17:57:40.854Z,8.75
2023-03-10T18:00:11.411Z,12.00
2023-03-10T18:02:43.856Z,11.43
2023-03-10T18:05:12.996Z,10.82
2023-03-10T18:07:41.381Z,13.25
2023-03-10T18:10:11.259Z,11.57
2023-03-10T18:12:39.617Z,14.48
2023-03-10T18:15:09.066Z,15.20
2023-03-10T18:17:37.515Z,11.75
2023-03-10T18:20:10.110Z,13.23
2023-03-10T18:22:38.765Z,13.20
2023-03-10T18:25:07.962Z,12.77
2023-03-10T18:27:39.972Z,12.20
2023-03-10T18:30:10.066Z,12.07
2023-03-10T18:32:38.503Z,12.75
2023-03-10T18:35:11.160Z,9.25
2023-03-10T18:37:39.501Z,13.82
2023-03-10T18:40:09.220Z,11.60
2023-03-10T18:42:37.520Z,12.20
2023-03-10T18:45:07.406Z,13.95
2023-03-10T18:47:35.680Z,9.10
2023-03-10T18:50:03.900Z,13.20
2023-03-10T18:52:33.954Z,16.65
2023-03-10T18:55:02.293Z,12.82
2023-03-10T18:57:30.544Z,17.00
2023-03-10T19:00:00.784Z,19.70
2023-03-10T19:02:29.377Z,16.90
2023-03-10T19:04:59.606Z,41.13
2023-03-10T19:07:27.888Z,52.17
2023-03-10T19:09:57.811Z,46.47
2023-03-10T19:12:26.609Z,22.92
2023-03-10T19:14:55.463Z,22.85
2023-03-10T19:17:26.502Z,15.18
2023-03-10T19:19:55.162Z,20.40
2023-03-10T19:22:23.514Z,16.45
2023-03-10T19:24:51.789Z,17.70
2023-03-10T19:27:21.645Z,26.45
2023-03-10T19:29:53.060Z,20.42
2023-03-10T19:32:21.930Z,14.30
2023-03-10T19:34:50.470Z,13.15
2023-03-10T19:37:18.859Z,17.13
2023-03-10T19:39:47.185Z,13.45
2023-03-10T19:42:15.567Z,24.88
2023-03-10T19:44:47.161Z,22.55
2023-03-10T19:47:17.548Z,24.63
2023-03-10T19:49:46.352Z,27.70
2023-03-10T19:52:14.643Z,27.23
2023-03-10T19:54:42.992Z,20.33
2023-03-10T19:57:13.241Z,25.95
2023-03-10T19:59:42.189Z,27.98
2023-03-10T20:02:14.718Z,27.45
2023-03-10T20:04:43.501Z,25.15
2023-03-10T20:07:12.511Z,30.65
2023-03-10T20:09:40.808Z,25.48
2023-03-10T20:12:09.154Z,27.33
2023-03-10T20:14:37.597Z,25.63
2023-03-10T20:17:05.871Z,24.73
2023-03-10T20:19:35.597Z,26.30
2023-03-10T20:22:04.711Z,30.30
2023-03-10T20:24:32.985Z,24.92
2023-03-10T20:27:03.195Z,25.48
2023-03-10T20:29:32.614Z,28.05
2023-03-10T20:32:00.845Z,28.45
2023-03-10T20:34:29.214Z,26.63
2023-03-10T20:36:58.971Z,28.98
2023-03-10T20:39:27.340Z,25.27
2023-03-10T20:41:55.637Z,24.30
2023-03-10T20:44:24.079Z,25.60
2023-03-10T20:46:52.339Z,25.80
2023-03-10T20:49:20.689Z,28.75
2023-03-10T20:51:48.937Z,28.88
2023-03-10T20:54:19.019Z,27.35
2023-03-10T20:56:47.320Z,28.70
2023-03-10T20:59:15.608Z,37.42
2023-03-10T21:01:44.011Z,37.95
2023-03-10T21:04:12.371Z,48.20
2023-03-10T21:06:40.730Z,56.50
2023-03-10T21:09:08.947Z,86.45
2023-03-10T21:11:38.752Z,74.63
2023-03-10T21:14:07.234Z,57.65
2023-03-10T21:16:39.676Z,43.00
2023-03-10T21:19:08.178Z,32.53
2023-03-10T21:21:36.807Z,35.88
2023-03-10T21:24:06.255Z,29.15
2023-03-10T21:26:34.615Z,29.92
2023-03-10T21:29:04.808Z,28.52
2023-03-10T21:31:33.181Z,29.33
2023-03-10T21:34:01.437Z,29.42
2023-03-10T21:36:29.784Z,27.52
2023-03-10T21:38:58.100Z,26.85
2023-03-10T21:41:29.088Z,30.20
2023-03-10T21:43:58.585Z,31.23
2023-03-10T21:46:28.748Z,35.53
2023-03-10T21:48:57.114Z,35.60
2023-03-10T21:51:26.910Z,32.30
2023-03-10T21:53:55.501Z,32.75
2023-03-10T21:56:26.070Z,30.67
2023-03-10T21:58:54.418Z,31.33
2023-03-10T22:01:23.495Z,30.40
2023-03-10T22:03:53.650Z,31.30
2023-03-10T22:06:22.302Z,32.38
2023-03-10T22:08:50.846Z,33.20
2023-03-10T22:11:20.214Z,32.88
2023-03-10T22:13:48.542Z,31.83
2023-03-10T22:16:18.515Z,29.47
2023-03-10T22:18:47.369Z,29.48
2023-03-10T22:21:17.826Z,28.80
2023-03-10T22:23:46.159Z,31.27
2023-03-10T22:26:14.779Z,34.65
2023-03-10T22:28:43.063Z,34.67
2023-03-10T22:31:12.052Z,33.15
2023-03-10T22:33:40.557Z,35.97
2023-03-10T22:36:12.348Z,34.63
2023-03-10T22:38:42.322Z,37.28
2023-03-10T22:41:11.871Z,35.28
2023-03-10T22:43:40.455Z,38.22
2023-03-10T22:46:11.116Z,35.30
2023-03-10T22:48:39.515Z,36.60
2023-03-10T22:51:08.977Z,40.42
2023-03-10T22:53:38.183Z,39.08
2023-03-10T22:56:08.763Z,35.05
2023-03-10T22:58:37.753Z,34.50
2023-03-10T23:01:06.407Z,33.72
2023-03-10T23:03:35.334Z,32.55
2023-03-10T23:06:05.193Z,37.05
2023-03-10T23:08:33.749Z,39.63
2023-03-10T23:11:02.032Z,32.05
2023-03-10T23:13:31.851Z,34.63
2023-03-10T23:16:00.284Z,32.10
2023-03-10T23:18:28.568Z,33.88
2023-03-10T23:20:56.819Z,33.20
2023-03-10T23:23:25.184Z,34.33
2023-03-10T23:25:53.580Z,35.33
2023-03-10T23:28:22.803Z,34.72
2023-03-10T23:30:54.333Z,34.47
2023-03-10T23:33:24.595Z,34.63
2023-03-10T23:35:54.487Z,35.25
2023-03-10T23:38:25.620Z,34.17
2023-03-10T23:40:55.522Z,37.15
2023-03-10T23:43:25.826Z,34.88
2023-03-10T23:45:55.886Z,29.63
2023-03-10T23:48:24.770Z,35.05
2023-03-10T23:50:52.996Z,31.90
2023-03-10T23:53:21.844Z,31.20
2023-03-10T23:55:50.865Z,35.42
2023-03-10T23:58:21.188Z,32.17
